createdAt,value
2019-04-01T00:02:11.482Z,100920.06
2019-04-01T00:04:43.737Z,100931.42
2019-04-01T00:07:14.189Z,100932.26
2019-04-01T00:09:44.619Z,100931.97
2019-04-01T00:12:15.100Z,100935.83
2019-04-01T00:14:45.527Z,100925.84
2019-04-01T00:17:16.011Z,100921.61
2019-04-01T00:19:46.459Z,100928.00
2019-04-01T00:22:17.239Z,100924.61
2019-04-01T00:24:47.713Z,100921.19
2019-04-01T00:27:18.164Z,100923.55
2019-04-01T00:29:48.598Z,100922.61
2019-04-01T00:32:19.173Z,100920.80
2019-04-01T00:34:49.603Z,100924.63
2019-04-01T00:37:20.033Z,100922.22
2019-04-01T00:39:50.488Z,100923.23
2019-04-01T00:42:49.225Z,100925.20
2019-04-01T00:45:20.958Z,100929.56
2019-04-01T00:47:52.152Z,100924.36
2019-04-01T00:50:22.617Z,100929.64
2019-04-01T00:52:53.047Z,100926.81
2019-04-01T00:55:23.506Z,100929.02
2019-04-01T00:57:53.936Z,100923.23
2019-04-01T01:00:24.404Z,100923.28
2019-04-01T01:02:54.834Z,100924.22
2019-04-01T01:05:25.252Z,100922.14
2019-04-01T01:07:55.733Z,100927.52
2019-04-01T01:10:26.159Z,100930.52
2019-04-01T01:12:56.590Z,100920.39
2019-04-01T01:15:27.395Z,100921.29
2019-04-01T01:17:58.639Z,100912.33
2019-04-01T01:20:29.071Z,100915.66
2019-04-01T01:22:59.909Z,100906.41
2019-04-01T01:25:30.748Z,100908.22
2019-04-01T01:28:01.171Z,100915.50
2019-04-01T01:30:31.683Z,100908.95
2019-04-01T01:33:02.302Z,100912.31
2019-04-01T01:35:33.870Z,100917.56
2019-04-01T01:38:04.312Z,100906.88
2019-04-01T01:40:34.797Z,100908.67
2019-04-01T01:43:05.309Z,100908.00
2019-04-01T01:45:35.728Z,100901.58
2019-04-01T01:48:06.356Z,100899.72
2019-04-01T01:50:37.043Z,100901.70
2019-04-01T01:53:08.017Z,100899.35
2019-04-01T01:55:38.446Z,100894.34
2019-04-01T01:58:08.879Z,100895.88
2019-04-01T02:00:41.245Z,100899.61
2019-04-01T02:03:11.804Z,100900.43
2019-04-01T02:05:42.208Z,100897.06
2019-04-01T02:08:13.257Z,100891.93
2019-04-01T02:10:43.713Z,100887.22
2019-04-01T02:13:14.135Z,100890.56
2019-04-01T02:15:44.971Z,100884.50
2019-04-01T02:18:16.030Z,100891.59
2019-04-01T02:20:47.058Z,100886.12
2019-04-01T02:23:17.488Z,100884.64
2019-04-01T02:25:48.228Z,100884.25
2019-04-01T02:28:18.756Z,100888.70
2019-04-01T02:30:49.602Z,100888.31
2019-04-01T02:33:20.022Z,100879.89
2019-04-01T02:35:50.472Z,100882.53
2019-04-01T02:38:21.283Z,100882.05
2019-04-01T02:40:51.938Z,100884.28
2019-04-01T02:43:22.360Z,100884.19
2019-04-01T02:45:53.715Z,100890.83
2019-04-01T02:48:24.176Z,100880.56
2019-04-01T02:50:54.640Z,100882.16
2019-04-01T02:53:25.407Z,100883.92
2019-04-01T02:55:55.858Z,100883.30
2019-04-01T02:58:26.286Z,100877.81
2019-04-01T03:00:56.876Z,100879.91
2019-04-01T03:03:27.348Z,100880.34
2019-04-01T03:05:57.816Z,100880.99
2019-04-01T03:08:29.201Z,100876.22
2019-04-01T03:10:59.676Z,100876.31
2019-04-01T03:13:30.925Z,100871.45
2019-04-01T03:16:02.039Z,100879.05
2019-04-01T03:18:33.201Z,100876.19
2019-04-01T03:21:04.500Z,100874.39
2019-04-01T03:23:34.977Z,100877.39
2019-04-01T03:26:05.406Z,100880.66
2019-04-01T03:28:35.842Z,100886.03
2019-04-01T03:31:07.309Z,100879.22
2019-04-01T03:33:37.801Z,100877.81
2019-04-01T03:36:08.228Z,100884.20
2019-04-01T03:38:38.853Z,100877.69
2019-04-01T03:41:09.297Z,100877.81
2019-04-01T03:43:39.877Z,100883.42
2019-04-01T03:46:11.701Z,100877.51
2019-04-01T03:48:42.288Z,100878.14
2019-04-01T03:51:13.081Z,100884.65
2019-04-01T03:53:43.587Z,100881.70
2019-04-01T03:56:14.026Z,100880.33
2019-04-01T03:58:44.457Z,100884.91
2019-04-01T04:01:15.105Z,100885.22
2019-04-01T04:03:46.416Z,100878.31
2019-04-01T04:06:17.217Z,100879.94
2019-04-01T04:08:47.680Z,100876.70
2019-04-01T04:11:18.100Z,100874.47
2019-04-01T04:13:48.898Z,100874.45
2019-04-01T04:16:19.319Z,100881.37
2019-04-01T04:18:49.771Z,100876.48
2019-04-01T04:21:23.768Z,100878.55
2019-04-01T04:23:52.420Z,100874.59
2019-04-01T04:26:22.840Z,100871.29
2019-04-01T04:28:53.340Z,100872.93
2019-04-01T04:31:23.796Z,100873.86
2019-04-01T04:33:54.284Z,100875.75
2019-04-01T04:36:24.715Z,100870.83
2019-04-01T04:38:55.151Z,100870.73
2019-04-01T04:41:25.604Z,100871.31
2019-04-01T04:43:56.398Z,100868.34
2019-04-01T04:46:27.132Z,100866.24
2019-04-01T04:48:57.605Z,100867.73
2019-04-01T04:51:28.133Z,100874.77
2019-04-01T04:53:58.553Z,100874.78
2019-04-01T04:56:29.017Z,100874.88
2019-04-01T04:58:59.442Z,100871.93
2019-04-01T05:01:29.888Z,100873.47
2019-04-01T05:04:00.404Z,100878.70
2019-04-01T05:06:30.893Z,100878.14
2019-04-01T05:09:01.323Z,100882.36
2019-04-01T05:11:31.745Z,100888.87
2019-04-01T05:14:02.312Z,100895.86
2019-04-01T05:16:33.212Z,100887.94
2019-04-01T05:19:03.640Z,100889.27
2019-04-01T05:21:36.004Z,100889.66
2019-04-01T05:24:06.458Z,100894.13
2019-04-01T05:26:38.716Z,100896.61
2019-04-01T05:29:10.263Z,100898.23
2019-04-01T05:31:43.604Z,100905.23
2019-04-01T05:34:15.298Z,100898.54
2019-04-01T05:36:46.454Z,100900.55
2019-04-01T05:39:16.886Z,100903.41
2019-04-01T05:41:47.413Z,100905.21
2019-04-01T05:44:18.035Z,100904.73
2019-04-01T05:46:48.569Z,100902.09
2019-04-01T05:49:19.799Z,100907.77
2019-04-01T05:51:50.252Z,100905.11
2019-04-01T05:54:20.682Z,100910.64
2019-04-01T05:56:51.423Z,100904.85
2019-04-01T05:59:21.850Z,100907.70
2019-04-01T06:01:52.655Z,100904.22
2019-04-01T06:04:23.093Z,100911.03
2019-04-01T06:06:53.883Z,100907.87
2019-04-01T06:09:24.948Z,100909.20
2019-04-01T06:11:55.381Z,100911.11
2019-04-01T06:14:27.337Z,100913.81
2019-04-01T06:16:58.718Z,100916.16
2019-04-01T06:19:29.826Z,100910.70
2019-04-01T06:22:00.255Z,100914.81
2019-04-01T06:24:31.533Z,100913.69
2019-04-01T06:27:02.365Z,100916.05
2019-04-01T06:29:33.493Z,100910.02
2019-04-01T06:32:04.116Z,100912.42
2019-04-01T06:34:34.928Z,100920.06
2019-04-01T06:37:05.366Z,100919.05
2019-04-01T06:39:35.781Z,100914.14
2019-04-01T06:42:07.324Z,100916.25
2019-04-01T06:44:38.042Z,100919.28
2019-04-01T06:47:08.493Z,100920.80
2019-04-01T06:49:39.209Z,100915.41
2019-04-01T06:52:09.660Z,100914.96
2019-04-01T06:54:40.440Z,100918.19
2019-04-01T06:57:10.972Z,100921.97
2019-04-01T06:59:41.449Z,100920.19
2019-04-01T07:02:11.905Z,100917.47
2019-04-01T07:04:42.329Z,100922.10
2019-04-01T07:07:19.327Z,100916.46
2019-04-01T07:09:46.088Z,100914.94
2019-04-01T07:12:16.909Z,100917.58
2019-04-01T07:14:47.663Z,100914.55
2019-04-01T07:17:18.145Z,100915.78
2019-04-01T07:19:48.668Z,100914.81
2019-04-01T07:22:19.465Z,100908.55
2019-04-01T07:24:49.945Z,100916.02
2019-04-01T07:27:20.875Z,100907.02
2019-04-01T07:29:51.300Z,100913.12
2019-04-01T07:32:21.758Z,100912.08
2019-04-01T07:34:52.186Z,100908.06
2019-04-01T07:37:22.798Z,100909.66
2019-04-01T07:39:53.244Z,100905.19
2019-04-01T07:42:23.817Z,100907.45
2019-04-01T07:44:54.242Z,100908.78
2019-04-01T07:47:25.649Z,100917.11
2019-04-01T07:49:56.223Z,100912.14
2019-04-01T07:52:26.755Z,100919.38
2019-04-01T07:54:57.344Z,100912.89
2019-04-01T07:57:27.800Z,100901.48
2019-04-01T07:59:58.554Z,100902.65
2019-04-01T08:02:29.375Z,100904.56
2019-04-01T08:04:59.797Z,100900.10
2019-04-01T08:07:30.248Z,100906.78
2019-04-01T08:10:00.783Z,100901.89
2019-04-01T08:12:31.647Z,100896.05
2019-04-01T08:15:02.073Z,100907.50
2019-04-01T08:17:32.859Z,100898.28
2019-04-01T08:20:04.636Z,100898.88
2019-04-01T08:22:35.065Z,100899.35
2019-04-01T08:25:06.244Z,100903.45
2019-04-01T08:27:36.753Z,100900.02
2019-04-01T08:30:08.244Z,100901.48
2019-04-01T08:32:38.771Z,100898.25
2019-04-01T08:35:10.117Z,100898.25
2019-04-01T08:37:40.899Z,100891.52
2019-04-01T08:40:11.780Z,100894.81
2019-04-01T08:42:42.331Z,100893.31
2019-04-01T08:45:13.265Z,100891.78
2019-04-01T08:47:43.823Z,100885.38
2019-04-01T08:50:14.892Z,100890.59
2019-04-01T08:52:45.665Z,100883.88
2019-04-01T08:55:16.105Z,100876.17
2019-04-01T08:57:47.032Z,100876.80
2019-04-01T09:00:17.768Z,100885.89
2019-04-01T09:02:48.357Z,100880.44
2019-04-01T09:05:19.160Z,100879.14
2019-04-01T09:07:50.449Z,100882.30
2019-04-01T09:10:20.876Z,100875.52
2019-04-01T09:12:51.628Z,100868.81
2019-04-01T09:15:22.415Z,100869.21
2019-04-01T09:17:52.905Z,100867.25
2019-04-01T09:20:23.339Z,100867.52
2019-04-01T09:22:54.178Z,100864.13
2019-04-01T09:25:24.808Z,100867.27
2019-04-01T09:27:55.327Z,100865.06
2019-04-01T09:30:25.775Z,100863.30
2019-04-01T09:32:58.007Z,100870.63
2019-04-01T09:35:28.821Z,100867.86
2019-04-01T09:37:59.250Z,100868.36
2019-04-01T09:40:29.704Z,100865.94
2019-04-01T09:43:00.133Z,100867.95
2019-04-01T09:45:30.595Z,100858.02
2019-04-01T09:48:01.043Z,100862.36
2019-04-01T09:50:32.115Z,100860.98
2019-04-01T09:53:02.540Z,100849.73
2019-04-01T09:55:33.001Z,100842.47
2019-04-01T09:58:03.558Z,100851.34
2019-04-01T10:00:34.039Z,100832.16
2019-04-01T10:03:04.811Z,100834.09
2019-04-01T10:05:35.244Z,100838.94
2019-04-01T10:08:05.727Z,100837.39
2019-04-01T10:10:36.152Z,100828.40
2019-04-01T10:13:06.584Z,100828.30
2019-04-01T10:15:37.129Z,100816.31
2019-04-01T10:18:07.567Z,100812.19
2019-04-01T10:20:38.005Z,100813.65
2019-04-01T10:23:08.457Z,100811.10
2019-04-01T10:25:38.945Z,100801.38
2019-04-01T10:28:09.411Z,100805.63
2019-04-01T10:30:39.848Z,100804.79
2019-04-01T10:33:10.437Z,100798.32
2019-04-01T10:35:40.868Z,100799.83
2019-04-01T10:38:11.341Z,100792.02
2019-04-01T10:40:41.832Z,100790.56
2019-04-01T10:43:12.353Z,100785.68
2019-04-01T10:45:42.788Z,100779.97
2019-04-01T10:48:13.347Z,100773.63
2019-04-01T10:50:46.235Z,100772.38
2019-04-01T10:53:16.662Z,100760.36
2019-04-01T10:55:47.214Z,100765.03
2019-04-01T10:58:17.634Z,100755.36
2019-04-01T11:00:48.080Z,100752.73
2019-04-01T11:03:18.930Z,100754.19
2019-04-01T11:05:49.422Z,100747.93
2019-04-01T11:08:20.418Z,100746.91
2019-04-01T11:10:51.024Z,100746.38
2019-04-01T11:13:22.012Z,100740.48
2019-04-01T11:15:52.781Z,100733.25
2019-04-01T11:18:24.210Z,100729.30
2019-04-01T11:20:56.795Z,100742.41
2019-04-01T11:23:26.810Z,100736.27
2019-04-01T11:25:57.273Z,100735.48
2019-04-01T11:28:27.733Z,100728.37
2019-04-01T11:30:58.362Z,100725.83
2019-04-01T11:33:28.824Z,100727.73
2019-04-01T11:35:59.279Z,100730.83
2019-04-01T11:38:29.771Z,100722.59
2019-04-01T11:41:00.271Z,100713.55
2019-04-01T11:43:30.678Z,100719.23
2019-04-01T11:46:01.173Z,100724.53
2019-04-01T11:48:32.377Z,100715.16
2019-04-01T11:51:02.883Z,100708.34
2019-04-01T11:53:34.743Z,100716.80
2019-04-01T11:56:05.588Z,100700.64
2019-04-01T11:58:36.317Z,100698.16
2019-04-01T12:01:06.774Z,100691.51
2019-04-01T12:03:37.206Z,100684.59
2019-04-01T12:06:07.669Z,100678.34
2019-04-01T12:08:38.107Z,100682.37
2019-04-01T12:11:08.591Z,100667.63
2019-04-01T12:13:39.034Z,100672.77
2019-04-01T12:16:09.465Z,100666.59
2019-04-01T12:18:39.942Z,100654.09
2019-04-01T12:21:10.384Z,100659.50
2019-04-01T12:23:40.809Z,100660.61
2019-04-01T12:26:15.320Z,100649.84
2019-04-01T12:28:44.485Z,100648.70
2019-04-01T12:31:15.167Z,100646.11
2019-04-01T12:33:46.857Z,100644.73
2019-04-01T12:36:19.114Z,100652.02
2019-04-01T12:38:53.448Z,100639.82
2019-04-01T12:41:21.909Z,100639.28
2019-04-01T12:43:52.750Z,100629.15
2019-04-01T12:46:23.233Z,100629.48
2019-04-01T12:48:53.666Z,100632.14
2019-04-01T12:51:24.105Z,100624.21
2019-04-01T12:53:55.045Z,100624.10
2019-04-01T12:56:25.484Z,100611.95
2019-04-01T12:58:55.968Z,100612.07
2019-04-01T13:01:26.773Z,100605.50
2019-04-01T13:03:57.201Z,100596.72
2019-04-01T13:06:27.674Z,100598.73
2019-04-01T13:08:58.099Z,100584.46
2019-04-01T13:11:28.585Z,100586.41
2019-04-01T13:13:59.077Z,100584.11
2019-04-01T13:16:29.685Z,100572.77
2019-04-01T13:19:00.505Z,100576.52
2019-04-01T13:21:34.418Z,100571.79
2019-04-01T13:24:03.114Z,100562.53
2019-04-01T13:26:33.560Z,100544.30
2019-04-01T13:29:04.078Z,100545.40
2019-04-01T13:31:34.558Z,100541.38
2019-04-01T13:34:04.990Z,100535.31
2019-04-01T13:36:35.487Z,100527.27
2019-04-01T13:39:07.905Z,100528.20
2019-04-01T13:41:42.758Z,100522.35
2019-04-01T13:44:10.508Z,100518.98
2019-04-01T13:46:41.427Z,100503.61
2019-04-01T13:49:12.213Z,100512.92
2019-04-01T13:51:43.882Z,100505.09
2019-04-01T13:54:14.847Z,100508.39
2019-04-01T13:56:45.302Z,100501.34
2019-04-01T13:59:17.594Z,100495.05
2019-04-01T14:01:48.206Z,100495.45
2019-04-01T14:04:18.731Z,100488.51
2019-04-01T14:06:49.513Z,100485.98
2019-04-01T14:09:20.923Z,100481.44
2019-04-01T14:11:51.557Z,100480.74
2019-04-01T14:14:22.060Z,100473.55
2019-04-01T14:16:52.491Z,100468.71
2019-04-01T14:19:23.305Z,100472.36
2019-04-01T14:21:53.815Z,100468.08
2019-04-01T14:24:24.620Z,100461.45
2019-04-01T14:26:56.658Z,100458.95
2019-04-01T14:29:27.267Z,100459.48
2019-04-01T14:31:57.721Z,100445.99
2019-04-01T14:34:28.158Z,100440.41
2019-04-01T14:36:58.976Z,100446.82
2019-04-01T14:39:30.898Z,100443.82
2019-04-01T14:42:02.222Z,100430.11
2019-04-01T14:44:33.307Z,100433.23
2019-04-01T14:47:04.104Z,100422.91
2019-04-01T14:49:34.536Z,100423.57
2019-04-01T14:52:05.119Z,100412.34
2019-04-01T14:54:35.579Z,100406.28
2019-04-01T14:57:06.714Z,100396.30
2019-04-01T14:59:37.205Z,100392.61
2019-04-01T15:02:07.634Z,100393.22
2019-04-01T15:04:38.064Z,100392.23
2019-04-01T15:07:08.837Z,100386.27
2019-04-01T15:09:39.273Z,100387.06
2019-04-01T15:12:10.297Z,100382.66
2019-04-01T15:14:41.094Z,100375.68
2019-04-01T15:17:11.548Z,100368.89
2019-04-01T15:19:41.974Z,100365.34
2019-04-01T15:22:13.435Z,100362.44
2019-04-01T15:24:44.137Z,100355.30
2019-04-01T15:27:14.582Z,100356.96
2019-04-01T15:29:45.985Z,100361.89
2019-04-01T15:32:16.599Z,100346.53
2019-04-01T15:34:47.331Z,100340.32
2019-04-01T15:37:17.837Z,100337.80
2019-04-01T15:39:49.559Z,100329.55
2019-04-01T15:42:20.286Z,100325.91
2019-04-01T15:44:52.062Z,100322.77
2019-04-01T15:47:22.476Z,100313.36
2019-04-01T15:49:53.586Z,100319.38
2019-04-01T15:52:24.406Z,100312.27
2019-04-01T15:54:57.808Z,100312.91
2019-04-01T15:57:27.188Z,100323.22
2019-04-01T15:59:58.382Z,100314.56
2019-04-01T16:02:28.819Z,100304.30
2019-04-01T16:04:59.258Z,100305.48
2019-04-01T16:07:29.801Z,100302.09
2019-04-01T16:10:00.382Z,100305.41
2019-04-01T16:12:31.027Z,100300.30
2019-04-01T16:15:01.521Z,100295.77
2019-04-01T16:17:33.818Z,100293.22
2019-04-01T16:20:04.592Z,100287.52
2019-04-01T16:22:35.862Z,100286.77
2019-04-01T16:25:06.797Z,100284.41
2019-04-01T16:27:37.243Z,100279.84
2019-04-01T16:30:08.091Z,100276.30
2019-04-01T16:32:38.533Z,100282.98
2019-04-01T16:35:10.476Z,100272.73
2019-04-01T16:37:41.794Z,100270.33
2019-04-01T16:40:13.112Z,100271.78
2019-04-01T16:42:43.543Z,100271.11
2019-04-01T16:45:14.739Z,100271.70
2019-04-01T16:47:48.330Z,100272.41
2019-04-01T16:50:17.526Z,100268.27
2019-04-01T16:52:48.058Z,100273.06
2019-04-01T16:55:18.950Z,100275.48
2019-04-01T16:57:49.508Z,100274.63
2019-04-01T17:00:22.611Z,100273.05
2019-04-01T17:02:53.040Z,100270.83
2019-04-01T17:05:29.651Z,100266.77
2019-04-01T17:08:00.380Z,100269.66
2019-04-01T17:10:31.114Z,100261.18
2019-04-01T17:13:01.710Z,100262.78
2019-04-01T17:15:32.167Z,100262.58
2019-04-01T17:18:03.159Z,100266.19
2019-04-01T17:20:33.588Z,100254.27
2019-04-01T17:23:04.666Z,100258.37
2019-04-01T17:25:36.691Z,100256.53
2019-04-01T17:28:07.327Z,100254.78
2019-04-01T17:30:37.788Z,100258.53
2019-04-01T17:33:08.862Z,100259.45
2019-04-01T17:35:39.707Z,100262.06
2019-04-01T17:38:13.518Z,100260.16
2019-04-01T17:40:43.641Z,100257.89
2019-04-01T17:43:14.200Z,100262.66
2019-04-01T17:45:44.636Z,100260.70
2019-04-01T17:48:15.437Z,100263.22
2019-04-01T17:50:45.949Z,100259.80
2019-04-01T17:53:16.697Z,100259.45
2019-04-01T17:55:48.512Z,100256.57
2019-04-01T17:58:19.048Z,100256.36
2019-04-01T18:00:54.784Z,100250.04
2019-04-01T18:03:25.210Z,100258.91
2019-04-01T18:05:55.644Z,100254.63
2019-04-01T18:08:26.756Z,100258.61
2019-04-01T18:10:57.748Z,100257.71
2019-04-01T18:13:28.640Z,100259.81
2019-04-01T18:16:01.429Z,100254.47
2019-04-01T18:18:34.079Z,100253.33
2019-04-01T18:21:04.536Z,100258.95
2019-04-01T18:23:35.406Z,100263.85
2019-04-01T18:26:05.992Z,100256.83
2019-04-01T18:28:36.489Z,100263.85
2019-04-01T18:31:07.226Z,100263.28
2019-04-01T18:33:40.263Z,100259.96
2019-04-01T18:36:10.806Z,100265.25
2019-04-01T18:38:41.604Z,100271.05
2019-04-01T18:41:15.117Z,100270.97
2019-04-01T18:43:46.367Z,100270.50
2019-04-01T18:46:16.820Z,100267.26
2019-04-01T18:48:48.107Z,100265.34
2019-04-01T18:51:20.357Z,100267.86
2019-04-01T18:53:50.996Z,100266.36
2019-04-01T18:56:21.434Z,100267.16
2019-04-01T18:58:53.123Z,100264.14
2019-04-01T19:01:25.022Z,100263.61
2019-04-01T19:03:55.860Z,100257.63
2019-04-01T19:06:28.948Z,100262.13
2019-04-01T19:09:09.118Z,100260.47
2019-04-01T19:11:32.492Z,100254.70
2019-04-01T19:14:03.023Z,100262.56
2019-04-01T19:16:33.488Z,100262.98
2019-04-01T19:19:03.929Z,100263.49
2019-04-01T19:21:39.751Z,100267.16
2019-04-01T19:24:10.594Z,100265.14
2019-04-01T19:26:41.019Z,100263.22
2019-04-01T19:29:12.849Z,100261.06
2019-04-01T19:31:43.292Z,100256.16
2019-04-01T19:34:14.419Z,100254.73
2019-04-01T19:36:45.350Z,100255.84
2019-04-01T19:39:15.885Z,100246.75
2019-04-01T19:41:46.729Z,100250.27
2019-04-01T19:44:18.279Z,100251.73
2019-04-01T19:46:49.024Z,100243.06
2019-04-01T19:49:19.644Z,100242.20
2019-04-01T19:51:50.397Z,100244.03
2019-04-01T19:54:30.633Z,100240.17
2019-04-01T19:56:53.266Z,100242.37
2019-04-01T19:59:26.014Z,100235.59
2019-04-01T20:01:55.948Z,100235.29
2019-04-01T20:04:26.411Z,100228.28
2019-04-01T20:06:56.908Z,100222.86
2019-04-01T20:09:27.376Z,100219.84
2019-04-01T20:11:58.431Z,100223.92
2019-04-01T20:14:29.099Z,100226.61
2019-04-01T20:17:02.113Z,100223.72
2019-04-01T20:19:33.176Z,100220.47
2019-04-01T20:22:05.335Z,100220.47
2019-04-01T20:24:36.117Z,100220.34
2019-04-01T20:27:06.853Z,100219.97
2019-04-01T20:29:37.359Z,100207.31
2019-04-01T20:32:17.132Z,100212.12
2019-04-01T20:34:41.672Z,100208.77
2019-04-01T20:37:12.145Z,100203.36
2019-04-01T20:39:42.894Z,100205.17
2019-04-01T20:42:13.627Z,100194.11
2019-04-01T20:44:44.148Z,100192.42
2019-04-01T20:47:14.592Z,100190.59
2019-04-01T20:49:45.033Z,100198.43
2019-04-01T20:52:16.801Z,100191.79
2019-04-01T20:54:47.568Z,100184.91
2019-04-01T20:57:18.008Z,100179.14
2019-04-01T20:59:48.584Z,100175.77
2019-04-01T21:02:19.024Z,100173.38
2019-04-01T21:04:49.447Z,100168.80
2019-04-01T21:07:20.280Z,100165.54
2019-04-01T21:09:50.973Z,100166.52
2019-04-01T21:12:22.160Z,100165.56
2019-04-01T21:14:52.637Z,100158.42
2019-04-01T21:17:24.425Z,100153.38
2019-04-01T21:19:54.943Z,100152.91
2019-04-01T21:22:25.725Z,100145.41
2019-04-01T21:24:56.153Z,100136.02
2019-04-01T21:27:26.584Z,100135.39
2019-04-01T21:29:57.063Z,100134.92
2019-04-01T21:32:27.491Z,100134.92
2019-04-01T21:34:58.273Z,100138.28
2019-04-01T21:37:28.751Z,100130.58
2019-04-01T21:39:59.579Z,100132.01
2019-04-01T21:42:30.120Z,100129.14
2019-04-01T21:45:00.592Z,100123.36
2019-04-01T21:47:31.386Z,100123.49
2019-04-01T21:50:01.815Z,100113.01
2019-04-01T21:52:33.147Z,100114.53
2019-04-01T21:55:07.701Z,100108.41
2019-04-01T21:57:36.857Z,100107.55
2019-04-01T22:00:09.536Z,100103.36
2019-04-01T22:02:40.415Z,100099.98
2019-04-01T22:05:11.571Z,100095.77
2019-04-01T22:07:42.667Z,100086.86
2019-04-01T22:10:13.653Z,100086.04
2019-04-01T22:12:44.089Z,100085.31
2019-04-01T22:15:14.834Z,100074.72
2019-04-01T22:17:46.110Z,100067.61
2019-04-01T22:20:16.774Z,100064.46
2019-04-01T22:22:47.545Z,100058.09
2019-04-01T22:25:17.981Z,100055.69
2019-04-01T22:27:48.410Z,100047.72
2019-04-01T22:30:18.973Z,100045.06
2019-04-01T22:32:49.413Z,100043.75
2019-04-01T22:35:20.314Z,100042.78
2019-04-01T22:37:50.982Z,100041.45
2019-04-01T22:40:21.456Z,100035.80
2019-04-01T22:42:51.875Z,100035.55
2019-04-01T22:45:22.375Z,100031.34
2019-04-01T22:47:52.811Z,100029.80
2019-04-01T22:50:23.253Z,100029.06
2019-04-01T22:52:53.728Z,100022.78
2019-04-01T22:55:24.167Z,100025.58
2019-04-01T22:57:55.283Z,100017.02
2019-04-01T23:00:25.740Z,100015.58
2019-04-01T23:02:56.192Z,100011.48
2019-04-01T23:05:26.611Z,100007.27
2019-04-01T23:07:57.084Z,100014.38
2019-04-01T23:10:27.633Z,100009.42
2019-04-01T23:12:58.350Z,100008.09
2019-04-01T23:15:28.815Z,100008.23
2019-04-01T23:17:59.249Z,100003.89
2019-04-01T23:20:29.693Z,99999.79
2019-04-01T23:23:00.129Z,99995.33
2019-04-01T23:25:30.966Z,100005.56
2019-04-01T23:28:01.767Z,100003.41
2019-04-01T23:30:33.223Z,99990.87
2019-04-01T23:33:04.321Z,99995.58
2019-04-01T23:35:34.732Z,99989.94
2019-04-01T23:38:05.196Z,99990.88
2019-04-01T23:40:35.611Z,99982.70
2019-04-01T23:43:06.060Z,99976.55
2019-04-01T23:45:36.903Z,99974.98
2019-04-01T23:48:07.366Z,99978.13
2019-04-01T23:50:38.506Z,99970.77
2019-04-01T23:53:08.968Z,99970.53
2019-04-01T23:55:39.747Z,99962.47
2019-04-01T23:58:10.327Z,99962.93
